Latest Weather Observations for Toowoomba

IDQ60801

Issued at 9:32 pm EST Sunday 22 October 2017 (issued every 30 minutes, with the page automatically refreshed every 10 minutes)

About weather observations | Map of weather stations | Latest weather observations for QLD | Other Formats
Station Details ID: 041529 Name: TOOWOOMBA AIRPORT Lat: -27.54 Lon: 151.91 Height: 640.9 m
Data from the previous 72 hours. | See also: Recent months at Toowoomba
Date/Time
EST
Temp
°C
App
Temp
°C
Dew
Point
°C
Rel
Hum
%
Delta-T
°C
Wind Press
QNH
hPa
Press
MSL
hPa
Rain since
9am
mm
Dir  Spd
km/h
Gust
km/h
Spd
kts
Gust
kts
22/09:30pm 14.1 10.6 12.3 89 1.0 ESE 22 30 12 16 1016.6 1014.2 0.0
22/09:00pm 14.4 10.5 12.1 86 1.3 E 24 32 13 17 1016.5 1014.1 0.0
22/08:30pm 14.7 11.5 10.1 74 2.5 E 17 26 9 14 1016.3 1013.9 0.0
22/08:00pm 16.1 14.2 7.6 57 4.4 E 7 9 4 5 1016.0 1013.6 0.0
22/07:30pm 16.5 14.6 7.4 55 4.7 ESE 7 7 4 4 1015.6 1013.1 0.0
22/07:00pm 17.6 15.5 6.8 49 5.6 SSE 7 9 4 5 1015.1 1012.7 0.0
22/06:30pm 17.7 15.6 6.6 48 5.7 S 7 11 4 6 1014.8 1012.4 0.0
22/06:00pm 18.1 15.7 6.9 48 5.8 S 9 13 5 7 1014.6 1012.2 0.0
22/05:30pm 19.2 15.6 6.7 44 6.5 SSW 15 20 8 11 1014.3 1011.8 0.0
22/05:00pm 19.4 15.7 6.2 42 6.8 SSW 15 24 8 13 1014.0 1011.5 0.0
22/04:30pm 20.3 16.3 6.6 41 7.1 SW 17 28 9 15 1013.8 1011.3 0.0
22/04:00pm 19.3 15.6 6.1 42 6.8 SW 15 24 8 13 1013.7 1011.2 0.0
22/03:30pm 21.0 16.5 6.2 38 7.7 WSW 19 26 10 14 1013.6 1011.1 0.0
22/03:00pm 19.3 14.8 7.1 45 6.4 SW 20 26 11 14 1013.7 1011.2 0.0
22/02:30pm 20.6 15.9 7.6 43 6.9 WSW 22 28 12 15 1013.8 1011.3 0.0
22/02:00pm 20.7 16.9 9.0 47 6.4 WSW 19 28 10 15 1013.9 1011.4 0.0
22/01:30pm 20.1 16.9 8.4 47 6.3 SSW 15 28 8 15 1014.2 1011.7 0.0
22/01:00pm 20.5 17.3 10.0 51 5.8 WSW 17 26 9 14 1014.4 1011.9 0.0
22/12:30pm 19.4 16.8 9.3 52 5.5 WSW 13 20 7 11 1014.7 1012.3 0.0
22/12:00pm 19.1 15.5 6.9 45 6.3 SW 15 24 8 13 1015.0 1012.6 0.0
22/11:30am 18.7 14.6 6.2 44 6.4 WSW 17 26 9 14 1015.5 1013.0 0.0
22/11:00am 18.5 14.2 7.0 47 6.0 SW 19 28 10 15 1015.7 1013.2 0.0
22/10:30am 18.3 15.0 9.6 57 4.7 WSW 17 24 9 13 1015.7 1013.2 0.0
22/10:00am 17.6 14.9 10.5 63 3.9 WSW 15 24 8 13 1015.9 1013.4 0.0
22/09:30am 16.7 15.3 10.8 68 3.3 SSW 9 17 5 9 1015.9 1013.4 0.0
22/09:00am 15.9 14.9 10.9 72 2.8 WNW 7 13 4 7 1016.2 1013.8 17.0
22/08:30am 15.3 13.8 10.7 74 2.5 W 9 13 5 7 1016.3 1013.9 17.0
22/08:00am 14.8 14.4 11.2 79 2.0 NW 4 11 2 6 1016.3 1013.9 17.0
22/07:30am 13.9 13.5 11.1 83 1.5 NNE 4 9 2 5 1016.1 1013.7 17.0
22/07:00am 12.7 12.4 11.6 93 0.6 S 4 7 2 4 1015.7 1013.2 17.0
22/06:30am 11.8 12.1 11.0 95 0.4 CALM 0 6 0 3 1015.7 1013.2 17.0
22/06:00am 11.3 11.6 11.0 98 0.2 CALM 0 0 0 0 1015.7 1013.2 17.0
22/05:30am 11.1 10.1 10.9 99 0.1 SW 7 9 4 5 1015.5 1013.0 17.0
22/05:07am 11.1 9.7 10.9 99 0.1 SW 9 13 5 7 1015.3 1012.8 17.0
22/05:00am 11.1 9.3 10.9 99 0.1 SW 11 13 6 7 1015.3 1012.8 17.0
22/04:46am 11.4 9.7 11.2 99 0.1 WSW 11 15 6 8 1015.3 1012.8 17.0
22/04:30am 11.6 10.3 11.4 99 0.1 WSW 9 11 5 6 1015.1 1012.7 17.0
22/04:00am 11.7 10.8 11.5 99 0.1 W 7 9 4 5 1015.0 1012.6 17.0
22/03:30am 11.9 10.7 11.7 99 0.1 WSW 9 11 5 6 1015.0 1012.6 17.0
22/03:26am 11.9 11.1 11.7 99 0.1 WSW 7 9 4 5 1015.0 1012.6 17.0
22/03:00am 11.9 11.1 11.7 99 0.1 WSW 7 9 4 5 1015.1 1012.7 17.0
22/02:52am 12.0 10.9 11.8 99 0.1 WSW 9 11 5 6 1015.1 1012.7 17.0
22/02:47am 12.0 10.9 11.8 99 0.1 SSW 9 11 5 6 1015.3 1012.8 17.0
22/02:30am 12.1 11.4 11.9 99 0.1 SSE 7 9 4 5 1015.4 1012.9 17.0
22/02:29am 12.1 11.4 11.9 99 0.1 SSE 7 9 4 5 1015.4 1012.9 17.0
22/02:14am 12.0 12.6 11.8 99 0.1 CALM 0 0 0 0 1015.5 1013.0 17.0
22/02:00am 12.0 12.2 11.8 99 0.1 SSE 2 7 1 4 1015.6 1013.1 17.0
22/01:51am 12.1 11.6 11.9 99 0.1 SSE 6 7 3 4 1015.7 1013.2 17.0
22/01:47am 12.1 11.9 11.9 99 0.1 SSE 4 7 2 4 1015.8 1013.3 17.0
22/01:30am 12.1 11.4 11.9 99 0.1 SSE 7 9 4 5 1015.9 1013.4 17.0
22/01:00am 12.0 11.2 11.8 99 0.1 SSE 7 9 4 5 1016.1 1013.7 16.8
22/12:57am 12.0 11.2 11.8 99 0.1 SSE 7 9 4 5 1016.2 1013.8 16.8
22/12:54am 11.9 11.1 11.7 99 0.1 SSE 7 9 4 5 1016.2 1013.8 16.8
22/12:45am 11.9 11.1 11.7 99 0.1 SSE 7 9 4 5 1016.4 1014.0 16.8
22/12:30am 11.8 11.0 11.6 99 0.1 SSE 7 9 4 5 1016.5 1014.1 16.8
22/12:03am 11.7 10.5 11.5 99 0.1 SE 9 11 5 6 1016.7 1014.3 16.8
22/12:00am 11.7 10.5 11.5 99 0.1 SE 9 11 5 6 1016.7 1014.3 16.8
 
Date/Time
EST
Temp
°C
App
Temp
°C
Dew
Point
°C
Rel
Hum
%
Delta-T
°C
Wind Press
QNH
hPa
Press
MSL
hPa
Rain since
9am
mm
Dir  Spd
km/h
Gust
km/h
Spd
kts
Gust
kts
21/11:34pm 11.7 10.1 11.5 99 0.1 E 11 13 6 7 1017.1 1014.6 16.8
21/11:30pm 11.7 10.1 11.5 99 0.1 ESE 11 13 6 7 1017.1 1014.6 16.8
21/11:17pm 11.8 10.2 11.6 99 0.1 ESE 11 15 6 8 1017.2 1014.7 16.8
21/11:12pm 11.7 9.7 11.5 99 0.1 E 13 17 7 9 1017.1 1014.6 16.8
21/11:10pm 11.7 9.7 11.5 99 0.1 E 13 17 7 9 1017.0 1014.5 16.8
21/11:00pm 11.9 9.6 11.7 99 0.1 E 15 17 8 9 1016.7 1014.3 16.8
21/10:51pm 12.0 9.7 11.8 99 0.1 E 15 19 8 10 1016.9 1014.4 16.8
21/10:40pm 12.1 9.5 11.9 99 0.1 ESE 17 20 9 11 1017.1 1014.6 16.8
21/10:30pm 12.1 9.8 11.9 99 0.1 ESE 15 20 8 11 1017.3 1014.8 16.8
21/10:00pm 12.1 9.5 11.9 99 0.1 E 17 20 9 11 1017.3 1014.8 16.8
21/09:30pm 12.2 9.2 12.0 99 0.1 E 19 24 10 13 1017.3 1014.8 16.8
21/09:00pm 12.4 10.6 12.2 99 0.1 ENE 13 19 7 10 1017.4 1015.0 16.8
21/08:47pm 12.4 11.0 12.2 99 0.1 ENE 11 13 6 7 1017.6 1015.2 16.8
21/08:30pm 12.6 11.6 12.4 99 0.1 ENE 9 13 5 7 1017.6 1015.2 16.8
21/08:00pm 12.6 12.0 12.4 99 0.1 SE 7 9 4 5 1017.6 1015.2 16.8
21/07:30pm 12.5 11.9 12.3 99 0.1 E 7 11 4 6 1017.2 1014.7 16.8
21/07:12pm 12.5 11.5 12.3 99 0.1 ENE 9 11 5 6 1017.0 1014.5 16.8
21/07:00pm 12.5 11.5 12.3 99 0.1 NE 9 11 5 6 1016.9 1014.4 16.8
21/06:42pm 12.6 11.6 12.4 99 0.1 ENE 9 11 5 6 1016.9 1014.4 16.8
21/06:38pm 12.6 11.6 12.4 99 0.1 E 9 13 5 7 1017.0 1014.5 16.8
21/06:30pm 12.6 11.3 12.4 99 0.1 E 11 13 6 7 1017.0 1014.5 16.8
21/06:00pm 12.6 10.5 12.4 99 0.1 E 15 19 8 10 1016.9 1014.4 16.8
21/05:30pm 12.5 9.4 12.3 99 0.1 ESE 20 26 11 14 1016.5 1014.1 16.8
21/05:00pm 13.0 9.3 12.8 99 0.1 E 24 30 13 16 1015.9 1013.4 16.8
21/04:30pm 13.0 9.3 12.8 99 0.1 E 24 32 13 17 1015.8 1013.3 16.8
21/04:07pm 13.8 10.4 13.6 99 0.1 E 24 33 13 18 1015.5 1013.0 16.8
21/04:01pm 13.6 9.4 13.4 99 0.1 E 28 35 15 19 1015.5 1013.0 16.8
21/04:00pm 13.5 9.2 13.3 99 0.1 E 28 35 15 19 1015.5 1013.0 16.8
21/03:30pm 13.2 8.4 13.0 99 0.1 E 30 37 16 20 1015.3 1012.8 16.8
21/03:00pm 13.2 8.0 12.9 98 0.2 ESE 32 37 17 20 1015.7 1013.2 16.8
21/02:39pm 13.5 9.2 13.3 99 0.1 ESE 28 39 15 21 1015.5 1013.0 16.6
21/02:30pm 13.4 10.2 13.2 99 0.1 SE 22 33 12 18 1016.3 1013.9 16.6
21/02:16pm 13.4 9.8 13.2 99 0.1 SSE 24 35 13 19 1017.4 1015.0 16.0
21/02:00pm 13.6 11.1 13.4 99 0.1 SSE 19 32 10 17 1017.3 1014.8 15.2
21/01:30pm 13.8 12.1 13.6 99 0.1 SE 15 20 8 11 1017.1 1014.6 13.2
21/01:00pm 13.7 11.0 13.5 99 0.1 ESE 20 28 11 15 1017.1 1014.6 11.4
21/12:59pm 13.7 10.6 13.5 99 0.1 ESE 22 30 12 16 1017.1 1014.6 11.4
21/12:30pm 13.8 10.0 13.6 99 0.1 ESE 26 33 14 18 1017.3 1014.8 9.2
21/12:04pm 13.9 9.8 13.7 99 0.1 E 28 35 15 19 1017.3 1014.8 8.2
21/12:00pm 13.9 9.8 13.7 99 0.1 E 28 35 15 19 1017.3 1014.8 8.0
21/11:46am 14.0 10.6 13.8 99 0.1 ESE 24 32 13 17 1017.4 1015.0 7.0
21/11:30am 13.9 10.1 13.7 99 0.1 E 26 33 14 18 1017.4 1015.0 5.4
21/11:08am 14.2 9.8 14.0 99 0.1 E 30 37 16 20 1017.5 1015.1 3.6
21/11:00am 14.2 9.8 14.0 99 0.1 E 30 37 16 20 1017.6 1015.2 3.6
21/10:30am 14.9 12.8 14.7 99 0.1 E 19 24 10 13 1017.8 1015.4 3.2
21/10:22am 14.8 12.5 14.6 99 0.1 E 20 26 11 14 1018.0 1015.6 3.0
21/10:00am 14.7 12.3 14.5 99 0.1 E 20 28 11 15 1018.3 1015.9 1.8
21/09:57am 15.0 12.9 14.8 99 0.1 ENE 19 26 10 14 1018.3 1015.9 1.6
21/09:30am 15.2 14.4 15.0 99 0.1 ENE 13 17 7 9 1018.4 1016.0 0.8
21/09:00am 15.2 14.7 15.0 99 0.1 E 11 13 6 7 1018.7 1016.2 8.0
21/08:30am 15.1 15.0 14.9 99 0.1 E 9 13 5 7 1018.7 1016.2 7.6
21/08:00am 15.1 15.0 14.9 99 0.1 E 9 13 5 7 1018.4 1016.0 7.4
21/07:30am 14.7 14.8 14.5 99 0.1 SSE 7 9 4 5 1018.8 1016.4 3.8
21/07:00am 14.7 14.4 14.5 99 0.1 SE 9 11 5 6 1018.2 1015.8 3.8
21/06:30am 14.7 12.9 14.5 99 0.1 ENE 17 20 9 11 1017.2 1014.7 3.6
21/06:13am 14.9 12.8 14.7 99 0.1 ENE 19 24 10 13 1016.9 1014.4 3.0
21/06:00am 15.4 15.0 15.2 99 0.1 NE 11 17 6 9 1017.2 1014.7 2.4
21/05:38am 15.4 15.4 15.2 99 0.1 NNW 9 11 5 6 1017.6 1015.2 2.4
21/05:30am 15.5 15.5 15.3 99 0.1 N 9 15 5 8 1017.6 1015.2 2.2
21/05:19am 15.5 15.1 15.3 99 0.1 NNW 11 17 6 9 1017.8 1015.4 1.8
21/05:00am 15.7 15.0 15.5 99 0.1 NNW 13 19 7 10 1017.8 1015.4 0.8
21/04:30am 15.9 15.2 15.3 96 0.4 NW 13 20 7 11 1017.7 1015.3 0.2
21/04:00am 16.2 16.4 14.7 91 0.9 N 7 11 4 6 1017.4 1015.0 0.0
21/03:50am 16.3 17.1 14.7 90 0.9 N 4 9 2 5 1017.4 1015.0 0.0
21/03:30am 16.3 16.5 14.3 88 1.2 N 6 7 3 4 1017.4 1015.0 0.0
21/03:00am 16.4 16.4 14.2 87 1.3 N 7 9 4 5 1017.4 1015.0 0.0
21/02:30am 16.0 16.3 14.4 90 0.9 ENE 6 7 3 4 1017.6 1015.2 0.0
21/02:00am 16.3 16.3 14.3 88 1.2 ENE 7 9 4 5 1017.5 1015.1 0.0
21/01:30am 17.0 17.1 13.9 82 1.8 NE 6 9 3 5 1018.1 1015.7 0.0
21/01:00am 17.3 17.3 13.6 79 2.2 N 6 9 3 5 1018.4 1016.0 0.0
21/12:30am 17.6 17.4 13.5 77 2.4 NNW 7 13 4 7 1019.3 1016.9 0.0
21/12:00am 17.5 16.9 13.4 77 2.4 E 9 13 5 7 1019.4 1017.0 0.0
 
Date/Time
EST
Temp
°C
App
Temp
°C
Dew
Point
°C
Rel
Hum
%
Delta-T
°C
Wind Press
QNH
hPa
Press
MSL
hPa
Rain since
9am
mm
Dir  Spd
km/h
Gust
km/h
Spd
kts
Gust
kts
20/11:30pm 18.3 18.0 13.2 72 3.0 NNE 7 13 4 7 1019.8 1017.4 0.0
20/11:00pm 18.4 17.2 12.8 70 3.2 NNE 11 15 6 8 1019.8 1017.4 0.0
20/10:30pm 18.7 17.5 12.9 69 3.4 NNE 11 17 6 9 1020.1 1017.8 0.0
20/10:00pm 18.3 16.8 13.0 71 3.1 E 13 15 7 8 1020.1 1017.8 0.0
20/09:30pm 19.0 17.6 12.3 65 3.8 NNE 11 15 6 8 1020.0 1017.6 0.0
20/09:00pm 19.1 17.8 12.6 66 3.7 NE 11 17 6 9 1020.1 1017.8 0.0
20/08:30pm 18.5 17.2 12.5 68 3.4 ENE 11 13 6 7 1020.3 1017.9 0.0
20/08:00pm 18.7 18.3 12.9 69 3.4 NE 7 11 4 6 1020.3 1017.9 0.0
20/07:30pm 18.6 17.4 12.8 69 3.4 ENE 11 13 6 7 1020.3 1017.9 0.0
20/07:00pm 18.8 18.0 13.0 69 3.4 E 9 11 5 6 1020.1 1017.8 0.0
20/06:30pm 19.7 18.8 12.5 63 4.2 ENE 9 11 5 6 1020.0 1017.6 0.0
20/06:00pm 20.3 19.3 12.3 60 4.6 ENE 9 13 5 7 1019.9 1017.5 0.0
20/05:30pm 21.2 19.9 12.6 58 5.0 ENE 11 13 6 7 1019.9 1017.5 0.0
20/05:00pm 21.3 19.5 12.2 56 5.3 ENE 13 17 7 9 1019.7 1017.3 0.0
20/04:30pm 22.1 20.6 11.8 52 6.0 ENE 11 15 6 8 1019.7 1017.3 0.0
20/04:00pm 22.4 21.0 12.1 52 6.0 ENE 11 17 6 9 1019.7 1017.3 0.0
20/03:30pm 21.9 20.2 11.3 51 6.1 ENE 11 15 6 8 1019.9 1017.5 0.0
20/03:00pm 22.0 21.1 12.5 54 5.5 E 9 13 5 7 1020.3 1017.9 0.0
20/02:30pm 22.0 20.3 11.1 50 6.2 WNW 11 17 6 9 1020.7 1018.3 0.0
20/02:00pm 21.7 20.4 11.4 52 5.9 N 9 15 5 8 1021.1 1018.7 0.0
20/01:30pm 22.3 20.7 12.8 55 5.6 NNW 13 19 7 10 1021.9 1019.5 0.0
20/01:00pm 21.8 21.0 12.9 57 5.2 NW 9 17 5 9 1022.3 1019.9 0.0
20/12:30pm 21.8 20.8 13.4 59 5.0 E 11 17 6 9 1022.7 1020.3 0.0
20/12:00pm 20.5 19.6 12.5 60 4.6 E 9 15 5 8 1023.0 1020.7 0.0
20/11:30am 20.2 18.6 12.9 63 4.3 NE 13 17 7 9 1023.4 1021.1 0.0
20/11:00am 19.4 18.4 13.3 68 3.6 ENE 11 17 6 9 1023.9 1021.5 0.0
20/10:30am 19.8 19.4 14.0 69 3.4 ENE 9 15 5 8 1024.2 1021.8 0.0
20/10:00am 18.4 17.7 13.3 72 3.0 ENE 9 15 5 8 1024.6 1022.3 0.0
20/09:30am 18.0 16.6 13.3 74 2.7 NE 13 19 7 10 1024.7 1022.4 0.0
20/09:00am 17.4 16.0 13.3 77 2.4 ENE 13 19 7 10 1024.9 1022.6 0.2
20/08:34am 17.1 15.6 14.2 83 1.7 NE 15 20 8 11 1024.9 1022.6 0.2
20/08:30am 17.4 16.2 15.0 86 1.4 ENE 15 22 8 12 1024.9 1022.6 0.2
20/08:00am 15.8 14.1 14.7 93 0.6 ENE 17 24 9 13 1024.7 1022.4 0.2
20/07:30am 15.5 13.6 15.3 99 0.1 ENE 19 26 10 14 1024.3 1022.0 0.2
20/07:00am 14.7 12.3 14.5 99 0.1 ENE 20 28 11 15 1024.2 1021.8 0.2
20/06:55am 14.7 12.3 14.5 99 0.1 ENE 20 28 11 15 1024.2 1021.8 0.2
20/06:40am 14.9 12.6 14.7 99 0.1 ENE 20 26 11 14 1024.3 1022.0 0.2
20/06:30am 14.7 12.5 14.5 99 0.1 ENE 19 24 10 13 1024.2 1021.8 0.2
20/06:22am 14.6 12.4 14.4 99 0.1 ENE 19 24 10 13 1024.3 1022.0 0.2
20/06:00am 14.5 12.3 14.3 99 0.1 ENE 19 24 10 13 1024.2 1021.8 0.2
20/05:56am 14.5 12.3 14.3 99 0.1 ENE 19 26 10 14 1024.1 1021.7 0.2
20/05:30am 14.3 12.0 14.1 99 0.1 ENE 19 24 10 13 1023.7 1021.3 0.2
20/05:18am 14.3 11.8 14.1 99 0.1 ENE 20 28 11 15 1023.6 1021.2 0.2
20/05:00am 14.3 12.4 14.1 99 0.1 ENE 17 24 9 13 1023.7 1021.3 0.2
20/04:30am 14.3 12.4 14.1 99 0.1 E 17 20 9 11 1023.4 1021.1 0.2
20/04:00am 14.4 12.9 14.2 99 0.1 ENE 15 19 8 10 1023.6 1021.2 0.2
20/03:30am 14.3 13.1 14.1 99 0.1 ENE 13 20 7 11 1023.6 1021.2 0.2
20/03:00am 14.3 13.1 14.1 99 0.1 ENE 13 17 7 9 1023.4 1021.1 0.2
20/02:30am 14.4 12.1 14.2 99 0.1 E 19 24 10 13 1023.7 1021.3 0.2
20/02:00am 14.6 12.4 14.4 99 0.1 ENE 19 26 10 14 1024.2 1021.8 0.2
20/01:30am 14.4 13.3 14.2 99 0.1 E 13 19 7 10 1024.5 1022.2 0.2
20/01:00am 14.3 12.8 14.1 99 0.1 E 15 20 8 11 1024.8 1022.5 0.2
20/12:30am 14.2 13.0 14.0 99 0.1 E 13 15 7 8 1025.1 1022.8 0.2
20/12:26am 14.2 13.0 14.0 99 0.1 E 13 15 7 8 1025.3 1022.9 0.2
20/12:00am 14.0 12.7 13.8 99 0.1 E 13 17 7 9 1025.7 1023.4 0.2
 
Date/Time
EST
Temp
°C
App
Temp
°C
Dew
Point
°C
Rel
Hum
%
Delta-T
°C
Wind Press
QNH
hPa
Press
MSL
hPa
Rain since
9am
mm
Dir  Spd
km/h
Gust
km/h
Spd
kts
Gust
kts
19/11:34pm 14.3 13.1 14.1 99 0.1 ENE 13 19 7 10 1026.2 1023.9 0.2
19/11:30pm 14.5 13.0 14.3 99 0.1 ENE 15 19 8 10 1026.3 1024.0 0.2
19/11:00pm 14.9 13.8 14.4 97 0.3 ENE 13 17 7 9 1026.6 1024.3 0.2
19/10:30pm 15.1 13.6 14.3 95 0.5 ENE 15 19 8 10 1027.0 1024.6 0.2
19/10:00pm 15.2 14.5 14.2 94 0.6 ENE 11 17 6 9 1027.1 1024.8 0.2
19/09:54pm 15.2 14.1 14.2 94 0.6 ENE 13 19 7 10 1027.1 1024.8 0.2
19/09:37pm 15.1 13.9 14.1 94 0.6 ENE 13 17 7 9 1027.1 1024.8 0.2

Other Formats:

Comma delimited format used in spreadsheet applications
http://www.bom.gov.au/fwo/IDQ60801/IDQ60801.95551.axf

JavaScript Object Notation format (JSON) in row-major order
http://www.bom.gov.au/fwo/IDQ60801/IDQ60801.95551.json